createdAt,value
2018-09-19T00:00:58.651Z,12.37
2018-09-19T00:03:26.928Z,9.80
2018-09-19T00:05:55.350Z,11.63
2018-09-19T00:08:24.628Z,9.35
2018-09-19T00:10:52.913Z,11.63
2018-09-19T00:13:21.308Z,7.20
2018-09-19T00:15:49.558Z,7.95
2018-09-19T00:18:17.826Z,10.98
2018-09-19T00:20:46.101Z,7.15
2018-09-19T00:23:14.368Z,9.93
2018-09-19T00:25:42.601Z,8.25
2018-09-19T00:28:10.880Z,7.95
2018-09-19T00:30:39.153Z,9.20
2018-09-19T00:33:07.399Z,7.25
2018-09-19T00:35:35.674Z,8.85
2018-09-19T00:38:03.910Z,9.68
2018-09-19T00:40:32.150Z,7.78
2018-09-19T00:43:00.448Z,7.53
2018-09-19T00:45:28.723Z,8.65
2018-09-19T00:47:56.963Z,7.65
2018-09-19T00:50:25.204Z,7.12
2018-09-19T00:52:54.331Z,11.73
2018-09-19T00:55:22.572Z,6.15
2018-09-19T00:57:50.825Z,5.85
2018-09-19T01:00:19.162Z,8.00
2018-09-19T01:02:47.488Z,9.98
2018-09-19T01:05:15.748Z,8.10
2018-09-19T01:07:44.103Z,7.58
2018-09-19T01:10:12.425Z,9.63
2018-09-19T01:12:40.762Z,8.55
2018-09-19T01:15:09.051Z,11.90
2018-09-19T01:17:37.346Z,10.38
2018-09-19T01:20:05.707Z,10.23
2018-09-19T01:22:33.975Z,7.67
2018-09-19T01:25:02.239Z,8.23
2018-09-19T01:27:30.514Z,8.98
2018-09-19T01:29:58.763Z,6.87
2018-09-19T01:32:27.047Z,10.43
2018-09-19T01:34:55.355Z,8.85
2018-09-19T01:37:24.150Z,9.45
2018-09-19T01:39:52.602Z,6.05
2018-09-19T01:42:20.854Z,7.62
2018-09-19T01:44:49.091Z,5.22
2018-09-19T01:47:17.406Z,4.95
2018-09-19T01:49:46.795Z,6.70
2018-09-19T01:52:15.106Z,8.58
2018-09-19T01:54:43.334Z,7.28
2018-09-19T01:57:11.634Z,6.42
2018-09-19T01:59:39.916Z,10.38
2018-09-19T02:02:08.154Z,7.62
2018-09-19T02:04:36.390Z,7.85
2018-09-19T02:07:04.746Z,6.30
2018-09-19T02:09:32.985Z,8.25
2018-09-19T02:12:01.259Z,9.93
2018-09-19T02:14:29.540Z,5.92
2018-09-19T02:16:57.779Z,8.10
2018-09-19T02:19:26.076Z,10.18
2018-09-19T02:21:54.374Z,8.55
2018-09-19T02:24:22.608Z,7.42
2018-09-19T02:26:50.995Z,10.45
2018-09-19T02:29:19.285Z,9.43
2018-09-19T02:31:47.637Z,8.38
2018-09-19T02:34:17.037Z,6.92
2018-09-19T02:36:45.355Z,7.30
2018-09-19T02:39:13.587Z,7.83
2018-09-19T02:41:41.879Z,8.60
2018-09-19T02:44:10.180Z,13.03
2018-09-19T02:46:38.500Z,7.50
2018-09-19T02:49:06.753Z,6.67
2018-09-19T02:51:35.025Z,8.48
2018-09-19T02:54:03.336Z,7.53
2018-09-19T02:56:31.617Z,10.95
2018-09-19T02:58:59.873Z,7.45
2018-09-19T03:01:28.161Z,9.57
2018-09-19T03:03:56.466Z,6.87
2018-09-19T03:06:24.765Z,8.13
2018-09-19T03:08:53.046Z,9.05
2018-09-19T03:11:21.330Z,7.12
2018-09-19T03:13:49.550Z,7.00
2018-09-19T03:16:17.813Z,8.25
2018-09-19T03:18:47.134Z,10.63
2018-09-19T03:21:15.407Z,10.18
2018-09-19T03:23:43.651Z,10.47
2018-09-19T03:26:11.891Z,8.53
2018-09-19T03:28:40.269Z,8.95
2018-09-19T03:31:08.537Z,10.75
2018-09-19T03:33:36.782Z,9.25
2018-09-19T03:36:05.054Z,10.78
2018-09-19T03:38:33.325Z,14.65
2018-09-19T03:41:01.575Z,15.05
2018-09-19T03:43:29.819Z,14.13
2018-09-19T03:45:58.099Z,16.97
2018-09-19T03:48:26.505Z,16.90
2018-09-19T03:50:54.843Z,16.52
2018-09-19T03:53:23.079Z,15.50
2018-09-19T03:55:51.369Z,16.93
2018-09-19T03:58:19.781Z,16.42
2018-09-19T04:00:48.078Z,18.35
2018-09-19T04:03:17.304Z,15.45
2018-09-19T04:05:45.538Z,19.12
2018-09-19T04:08:13.774Z,22.80
2018-09-19T04:10:42.054Z,21.33
2018-09-19T04:13:10.336Z,17.47
2018-09-19T04:15:38.639Z,18.65
2018-09-19T04:18:06.866Z,20.82
2018-09-19T04:20:35.154Z,18.23
2018-09-19T04:23:03.430Z,18.45
2018-09-19T04:25:31.707Z,17.25
2018-09-19T04:27:59.951Z,19.57
2018-09-19T04:30:28.228Z,21.50
2018-09-19T04:32:56.506Z,20.80
2018-09-19T04:35:24.754Z,26.57
2018-09-19T04:37:53.027Z,23.55
2018-09-19T04:40:21.261Z,24.03
2018-09-19T04:42:49.526Z,30.10
2018-09-19T04:45:17.930Z,23.47
2018-09-19T04:47:46.640Z,24.90
2018-09-19T04:50:14.907Z,26.67
2018-09-19T04:52:43.193Z,23.13
2018-09-19T04:55:11.428Z,24.40
2018-09-19T04:57:39.690Z,23.02
2018-09-19T05:00:07.991Z,25.55
2018-09-19T05:02:36.263Z,30.03
2018-09-19T05:05:04.696Z,23.87
2018-09-19T05:07:32.988Z,24.80
2018-09-19T05:10:01.258Z,22.17
2018-09-19T05:12:29.866Z,23.12
2018-09-19T05:14:58.974Z,30.70
2018-09-19T05:17:27.291Z,26.63
2018-09-19T05:19:55.678Z,29.05
2018-09-19T05:22:23.923Z,30.90
2018-09-19T05:24:52.167Z,24.57
2018-09-19T05:27:20.507Z,30.63
2018-09-19T05:29:48.741Z,27.62
2018-09-19T05:32:17.457Z,27.62
2018-09-19T05:34:45.738Z,28.30
2018-09-19T05:37:14.618Z,34.20
2018-09-19T05:39:42.878Z,28.98
2018-09-19T05:42:11.186Z,33.33
2018-09-19T05:44:40.675Z,31.00
2018-09-19T05:47:08.939Z,33.00
2018-09-19T05:49:37.178Z,30.52
2018-09-19T05:52:05.490Z,32.93
2018-09-19T05:54:33.786Z,36.67
2018-09-19T05:57:02.040Z,37.78
2018-09-19T05:59:30.339Z,31.07
2018-09-19T06:01:58.598Z,30.68
2018-09-19T06:04:26.846Z,31.93
2018-09-19T06:06:55.120Z,29.15
2018-09-19T06:09:23.574Z,28.95
2018-09-19T06:11:51.911Z,31.40
2018-09-19T06:14:20.189Z,33.40
2018-09-19T06:16:48.810Z,30.92
2018-09-19T06:19:17.099Z,27.47
2018-09-19T06:21:45.374Z,34.97
2018-09-19T06:24:13.616Z,35.13
2018-09-19T06:26:41.899Z,29.07
2018-09-19T06:29:10.132Z,30.25
2018-09-19T06:31:38.702Z,26.00
2018-09-19T06:34:06.966Z,25.45
2018-09-19T06:36:35.198Z,29.27
2018-09-19T06:39:04.438Z,28.15
2018-09-19T06:41:32.675Z,26.57
2018-09-19T06:44:00.946Z,26.87
2018-09-19T06:46:29.303Z,23.57
2018-09-19T06:48:57.551Z,21.25
2018-09-19T06:51:25.807Z,23.27
2018-09-19T06:53:54.177Z,19.60
2018-09-19T06:56:22.467Z,18.70
2018-09-19T06:58:50.706Z,14.55
2018-09-19T07:01:19.081Z,20.68
2018-09-19T07:03:47.426Z,16.82
2018-09-19T07:06:15.714Z,21.17
2018-09-19T07:08:43.994Z,18.37
2018-09-19T07:11:12.323Z,20.80
2018-09-19T07:13:40.622Z,23.67
2018-09-19T07:16:09.905Z,19.00
2018-09-19T07:18:38.209Z,16.67
2018-09-19T07:21:06.515Z,12.95
2018-09-19T07:23:34.797Z,17.57
2018-09-19T07:26:03.076Z,14.35
2018-09-19T07:28:31.360Z,12.70
2018-09-19T07:30:59.629Z,14.25
2018-09-19T07:33:27.957Z,10.50
2018-09-19T07:35:56.250Z,16.05
2018-09-19T07:38:25.207Z,17.87
2018-09-19T07:40:53.667Z,19.75
2018-09-19T07:43:22.089Z,16.42
2018-09-19T07:45:50.347Z,15.48
2018-09-19T07:48:18.599Z,19.62
2018-09-19T07:50:46.989Z,15.32
2018-09-19T07:53:15.266Z,16.17
2018-09-19T07:55:43.550Z,13.00
2018-09-19T07:58:12.941Z,14.28
2018-09-19T08:00:41.760Z,13.58
2018-09-19T08:03:10.283Z,14.10
2018-09-19T08:05:38.960Z,13.70
2018-09-19T08:08:07.872Z,13.80
2018-09-19T08:10:36.489Z,15.55
2018-09-19T08:13:05.260Z,16.23
2018-09-19T08:15:33.977Z,13.83
2018-09-19T08:18:05.741Z,11.93
2018-09-19T08:20:36.014Z,10.35
2018-09-19T08:23:05.848Z,16.42
2018-09-19T08:25:42.091Z,12.95
2018-09-19T08:28:10.850Z,8.63
2018-09-19T08:30:39.497Z,9.25
2018-09-19T08:33:08.169Z,14.18
2018-09-19T08:35:37.660Z,10.63
2018-09-19T08:38:06.990Z,9.45
2018-09-19T08:40:35.632Z,12.50
2018-09-19T08:43:04.401Z,14.07
2018-09-19T08:45:33.259Z,16.82
2018-09-19T08:48:01.946Z,11.28
2018-09-19T08:50:31.407Z,12.53
2018-09-19T08:53:01.385Z,9.20
2018-09-19T08:55:30.024Z,10.75
2018-09-19T08:57:58.964Z,11.07
2018-09-19T09:00:27.583Z,12.98
2018-09-19T09:02:56.300Z,13.00
2018-09-19T09:05:26.392Z,12.60
2018-09-19T09:07:55.006Z,13.20
2018-09-19T09:10:25.872Z,11.10
2018-09-19T09:12:54.479Z,13.48
2018-09-19T09:15:23.309Z,11.60
2018-09-19T09:17:52.224Z,10.63
2018-09-19T09:20:20.835Z,9.13
2018-09-19T09:22:50.126Z,14.23
2018-09-19T09:25:18.760Z,9.43
2018-09-19T09:27:47.407Z,9.60
2018-09-19T09:30:16.076Z,8.95
2018-09-19T09:32:44.692Z,10.90
2018-09-19T09:35:13.324Z,8.63
2018-09-19T09:37:42.028Z,8.40
2018-09-19T09:40:10.635Z,7.70
2018-09-19T09:42:39.225Z,12.00
2018-09-19T09:45:07.931Z,10.40
2018-09-19T09:47:36.641Z,11.28
2018-09-19T09:50:05.808Z,10.43
2018-09-19T09:52:34.519Z,8.48
2018-09-19T09:55:03.213Z,9.60
2018-09-19T09:57:31.948Z,8.28
2018-09-19T10:00:00.639Z,8.63
2018-09-19T10:02:30.355Z,9.45
2018-09-19T10:04:59.012Z,12.28
2018-09-19T10:07:27.639Z,9.23
2018-09-19T10:09:56.391Z,6.33
2018-09-19T10:12:24.995Z,8.60
2018-09-19T10:14:54.376Z,8.38
2018-09-19T10:17:23.089Z,11.33
2018-09-19T10:19:51.739Z,8.88
2018-09-19T10:22:20.523Z,11.95
2018-09-19T10:24:49.305Z,10.70
2018-09-19T10:27:18.911Z,7.10
2018-09-19T10:29:47.516Z,10.48
2018-09-19T10:32:16.151Z,9.88
2018-09-19T10:34:44.836Z,9.30
2018-09-19T10:37:13.740Z,9.40
2018-09-19T10:39:42.383Z,5.97
2018-09-19T10:42:11.375Z,11.95
2018-09-19T10:44:40.012Z,13.90
2018-09-19T10:47:08.665Z,8.70
2018-09-19T10:49:37.409Z,12.20
2018-09-19T10:52:06.083Z,9.45
2018-09-19T10:54:34.752Z,10.18
2018-09-19T10:57:03.990Z,11.57
2018-09-19T10:59:32.635Z,11.68
2018-09-19T11:02:01.832Z,9.78
2018-09-19T11:04:30.441Z,12.63
2018-09-19T11:06:59.140Z,13.90
2018-09-19T11:09:32.939Z,13.98
2018-09-19T11:12:09.744Z,15.40
2018-09-19T11:14:38.768Z,13.48
2018-09-19T11:17:07.449Z,11.63
2018-09-19T11:19:36.083Z,16.25
2018-09-19T11:22:04.699Z,12.82
2018-09-19T11:24:33.350Z,14.43
2018-09-19T11:27:06.575Z,13.05
2018-09-19T11:29:39.915Z,11.08
2018-09-19T11:32:09.227Z,15.03
2018-09-19T11:34:42.151Z,13.35
2018-09-19T11:37:10.759Z,14.20
2018-09-19T11:39:39.378Z,15.38
2018-09-19T11:42:08.040Z,16.77
2018-09-19T11:44:36.644Z,12.28
2018-09-19T11:47:05.612Z,18.27
2018-09-19T11:49:34.268Z,23.95
2018-09-19T11:52:02.955Z,18.85
2018-09-19T11:54:31.559Z,16.70
2018-09-19T11:57:00.237Z,15.53
2018-09-19T11:59:30.388Z,14.30
2018-09-19T12:01:59.690Z,18.75
2018-09-19T12:04:30.751Z,16.12
2018-09-19T12:07:30.824Z,14.93
2018-09-19T12:09:59.820Z,19.15
2018-09-19T12:12:32.911Z,17.42
2018-09-19T12:15:05.214Z,13.13
2018-09-19T12:17:35.972Z,18.60
2018-09-19T12:20:07.771Z,11.75
2018-09-19T12:22:38.045Z,11.28
2018-09-19T12:25:07.750Z,16.00
2018-09-19T12:27:36.384Z,16.32
2018-09-19T12:30:06.750Z,11.95
2018-09-19T12:32:36.716Z,9.95
2018-09-19T12:35:06.158Z,9.98
2018-09-19T12:37:35.159Z,11.10
2018-09-19T12:40:03.926Z,10.98
2018-09-19T12:42:34.334Z,10.13
2018-09-19T12:45:04.095Z,10.00
2018-09-19T12:47:32.783Z,12.13
2018-09-19T12:50:07.999Z,9.50
2018-09-19T12:52:36.620Z,9.53
2018-09-19T12:55:07.515Z,8.68
2018-09-19T12:57:37.473Z,11.30
2018-09-19T13:00:06.352Z,8.85
2018-09-19T13:02:35.116Z,12.85
2018-09-19T13:05:03.799Z,8.63
2018-09-19T13:07:32.395Z,10.10
2018-09-19T13:10:01.884Z,9.08
2018-09-19T13:12:30.549Z,11.85
2018-09-19T13:15:04.064Z,8.63
2018-09-19T13:17:32.920Z,10.82
2018-09-19T13:20:03.216Z,8.70
2018-09-19T13:22:33.239Z,8.88
2018-09-19T13:25:03.058Z,19.23
2018-09-19T13:27:34.069Z,8.90
2018-09-19T13:30:08.754Z,7.85
2018-09-19T13:32:41.938Z,9.20
2018-09-19T13:35:13.525Z,7.55
2018-09-19T13:37:43.221Z,8.83
2018-09-19T13:40:14.561Z,9.00
2018-09-19T13:42:46.453Z,7.42
2018-09-19T13:45:16.603Z,7.72
2018-09-19T13:47:45.260Z,11.38
2018-09-19T13:50:20.253Z,11.25
2018-09-19T13:52:49.068Z,7.87
2018-09-19T13:55:18.033Z,8.98
2018-09-19T13:57:46.668Z,9.28
2018-09-19T14:00:20.266Z,7.30
2018-09-19T14:02:49.011Z,8.13
2018-09-19T14:05:22.061Z,9.45
2018-09-19T14:07:51.767Z,10.05
2018-09-19T14:10:20.660Z,7.80
2018-09-19T14:15:26.884Z,8.15
2018-09-19T14:17:55.574Z,7.55
2018-09-19T14:20:24.171Z,7.37
2018-09-19T14:22:52.852Z,6.83
2018-09-19T14:25:21.461Z,10.15
2018-09-19T14:27:51.190Z,7.42
2018-09-19T14:30:19.902Z,7.80
2018-09-19T14:32:48.567Z,10.05
2018-09-19T14:35:17.219Z,9.30
2018-09-19T14:37:45.872Z,10.82
2018-09-19T14:40:14.476Z,5.65
2018-09-19T14:42:43.091Z,6.30
2018-09-19T14:45:11.879Z,10.63
2018-09-19T14:47:40.480Z,9.18
2018-09-19T14:50:09.136Z,9.63
2018-09-19T14:52:37.760Z,8.98
2018-09-19T14:55:06.428Z,8.58
2018-09-19T14:57:35.847Z,8.78
2018-09-19T15:00:04.758Z,7.40
2018-09-19T15:02:33.452Z,6.60
2018-09-19T15:05:02.202Z,9.33
2018-09-19T15:07:30.873Z,8.95
2018-09-19T15:10:00.459Z,10.50
2018-09-19T15:12:29.652Z,13.68
2018-09-19T15:14:58.483Z,10.65
2018-09-19T15:17:27.110Z,10.40
2018-09-19T15:19:55.715Z,9.23
2018-09-19T15:22:25.151Z,15.10
2018-09-19T15:24:53.811Z,14.60
2018-09-19T15:27:22.665Z,10.10
2018-09-19T15:29:51.310Z,12.20
2018-09-19T15:32:19.943Z,13.62
2018-09-19T15:34:49.572Z,15.40
2018-09-19T15:37:18.203Z,13.80
2018-09-19T15:39:46.840Z,15.90
2018-09-19T15:42:15.760Z,12.13
2018-09-19T15:44:44.366Z,15.08
2018-09-19T15:47:13.008Z,14.73
2018-09-19T15:49:41.643Z,11.83
2018-09-19T15:52:10.412Z,12.85
2018-09-19T15:54:40.718Z,13.25
2018-09-19T15:57:09.441Z,14.78
2018-09-19T15:59:38.980Z,14.90
2018-09-19T16:02:07.667Z,10.28
2018-09-19T16:04:36.311Z,11.83
2018-09-19T16:07:05.071Z,15.43
2018-09-19T16:09:33.830Z,12.80
2018-09-19T16:12:03.298Z,7.85
2018-09-19T16:14:32.012Z,9.50
2018-09-19T16:17:00.661Z,14.35
2018-09-19T16:19:29.307Z,10.32
2018-09-19T16:21:57.981Z,12.82
2018-09-19T16:24:28.024Z,10.43
2018-09-19T16:26:56.658Z,9.83
2018-09-19T16:29:25.364Z,9.78
2018-09-19T16:31:54.044Z,8.68
2018-09-19T16:34:23.303Z,13.85
2018-09-19T16:36:53.667Z,19.80
2018-09-19T16:39:22.264Z,22.85
2018-09-19T16:41:50.972Z,18.57
2018-09-19T16:44:19.764Z,12.28
2018-09-19T16:46:51.917Z,13.00
2018-09-19T16:49:20.691Z,15.40
2018-09-19T16:51:56.797Z,15.10
2018-09-19T16:54:29.259Z,11.60
2018-09-19T16:56:59.331Z,15.03
2018-09-19T16:59:31.542Z,15.93
2018-09-19T17:02:02.132Z,13.00
2018-09-19T17:04:32.589Z,11.22
2018-09-19T17:07:02.811Z,13.95
2018-09-19T17:09:31.604Z,13.08
2018-09-19T17:12:00.751Z,15.13
2018-09-19T17:14:29.513Z,12.53
2018-09-19T17:16:58.179Z,13.65
2018-09-19T17:19:27.739Z,17.02
2018-09-19T17:21:56.395Z,14.98
2018-09-19T17:24:35.790Z,12.37
2018-09-19T17:27:05.035Z,8.25
2018-09-19T17:29:37.507Z,11.45
2018-09-19T17:32:08.280Z,11.25
2018-09-19T17:34:37.518Z,13.30
2018-09-19T17:37:06.223Z,14.07
2018-09-19T17:39:36.575Z,8.93
2018-09-19T17:42:06.522Z,13.85
2018-09-19T17:44:35.216Z,15.32
2018-09-19T17:47:05.222Z,14.05
2018-09-19T17:49:33.828Z,11.78
2018-09-19T17:52:02.489Z,9.50
2018-09-19T17:54:31.542Z,8.33
2018-09-19T17:57:00.223Z,11.38
2018-09-19T17:59:28.908Z,14.55
2018-09-19T18:01:57.544Z,9.65
2018-09-19T18:04:26.328Z,11.83
2018-09-19T18:06:55.019Z,13.35
2018-09-19T18:09:24.036Z,9.95
2018-09-19T18:11:52.692Z,13.55
2018-09-19T18:14:21.395Z,11.03
2018-09-19T18:16:49.999Z,16.57
2018-09-19T18:19:18.649Z,10.68
2018-09-19T18:21:47.383Z,10.78
2018-09-19T18:24:16.335Z,9.10
2018-09-19T18:26:45.919Z,13.05
2018-09-19T18:29:14.592Z,13.65
2018-09-19T18:31:43.992Z,16.65
2018-09-19T18:34:16.732Z,13.72
2018-09-19T18:36:47.691Z,16.77
2018-09-19T18:39:22.184Z,15.03
2018-09-19T18:41:50.888Z,21.82
2018-09-19T18:44:20.964Z,15.38
2018-09-19T18:46:50.084Z,13.15
2018-09-19T18:49:18.936Z,10.80
2018-09-19T18:51:48.015Z,13.13
2018-09-19T18:54:20.591Z,17.87
2018-09-19T18:56:49.419Z,13.55
2018-09-19T18:59:18.063Z,18.25
2018-09-19T19:01:53.076Z,16.55
2018-09-19T19:04:21.843Z,13.85
2018-09-19T19:06:50.655Z,20.27
2018-09-19T19:09:19.344Z,25.50
2018-09-19T19:11:48.247Z,12.18
2018-09-19T19:14:17.164Z,14.95
2018-09-19T19:16:46.017Z,17.87
2018-09-19T19:19:14.799Z,19.05
2018-09-19T19:21:47.034Z,19.98
2018-09-19T19:24:15.820Z,21.37
2018-09-19T19:26:45.628Z,21.25
2018-09-19T19:29:16.195Z,25.97
2018-09-19T19:31:45.933Z,17.85
2018-09-19T19:34:16.620Z,19.73
2018-09-19T19:36:47.412Z,18.60
2018-09-19T19:39:16.421Z,16.60
2018-09-19T19:41:45.489Z,21.25
2018-09-19T19:44:14.481Z,18.27
2018-09-19T19:46:43.721Z,17.82
2018-09-19T19:49:12.818Z,21.77
2018-09-19T19:51:42.646Z,16.25
2018-09-19T19:54:16.804Z,20.68
2018-09-19T19:56:45.976Z,17.48
2018-09-19T19:59:17.147Z,18.05
2018-09-19T20:01:46.547Z,19.32
2018-09-19T20:04:15.445Z,18.98
2018-09-19T20:06:44.402Z,17.12
2018-09-19T20:09:13.737Z,15.48
2018-09-19T20:11:43.170Z,18.07
2018-09-19T20:14:12.694Z,12.73
2018-09-19T20:16:42.396Z,20.68
2018-09-19T20:19:11.177Z,16.23
2018-09-19T20:21:40.656Z,14.05
2018-09-19T20:24:09.386Z,15.30
2018-09-19T20:26:39.428Z,16.40
2018-09-19T20:29:10.139Z,18.00
2018-09-19T20:31:39.212Z,16.35
2018-09-19T20:34:09.591Z,19.05
2018-09-19T20:36:39.091Z,14.95
2018-09-19T20:39:11.299Z,18.23
2018-09-19T20:41:41.296Z,16.23
2018-09-19T20:44:15.543Z,17.40
2018-09-19T20:46:44.903Z,18.32
2018-09-19T20:49:15.521Z,14.70
2018-09-19T20:51:45.363Z,20.45
2018-09-19T20:54:14.100Z,18.70
2018-09-19T20:56:47.135Z,18.50
2018-09-19T20:59:16.108Z,21.05
2018-09-19T21:01:44.739Z,23.20
2018-09-19T21:04:13.688Z,22.17
2018-09-19T21:06:43.087Z,17.17
2018-09-19T21:09:11.727Z,19.67
2018-09-19T21:11:40.861Z,25.40
2018-09-19T21:14:09.680Z,18.32
2018-09-19T21:16:38.968Z,18.95
2018-09-19T21:19:13.527Z,19.40
2018-09-19T21:21:44.365Z,20.25
2018-09-19T21:24:18.415Z,19.98
2018-09-19T21:26:50.204Z,18.20
2018-09-19T21:29:20.656Z,17.65
2018-09-19T21:31:49.484Z,17.42
2018-09-19T21:34:18.219Z,21.52
2018-09-19T21:36:47.004Z,21.82
2018-09-19T21:39:21.171Z,22.02
2018-09-19T21:41:49.856Z,21.57
2018-09-19T21:44:21.493Z,20.68
2018-09-19T21:46:50.254Z,20.72
2018-09-19T21:49:18.909Z,21.93
2018-09-19T21:51:49.144Z,25.12
2018-09-19T21:54:18.719Z,21.40
2018-09-19T21:56:52.474Z,20.85
2018-09-19T21:59:22.818Z,19.32
2018-09-19T22:01:56.819Z,22.05
2018-09-19T22:04:25.484Z,25.70
2018-09-19T22:06:54.589Z,25.68
2018-09-19T22:09:26.628Z,20.92
2018-09-19T22:12:02.720Z,20.87
2018-09-19T22:14:34.024Z,26.23
2018-09-19T22:17:02.615Z,21.70
2018-09-19T22:19:31.283Z,22.30
2018-09-19T22:21:59.875Z,24.95
2018-09-19T22:24:28.508Z,22.07
2018-09-19T22:26:58.007Z,24.13
2018-09-19T22:29:26.691Z,19.23
2018-09-19T22:31:55.341Z,20.68
2018-09-19T22:34:24.836Z,26.73
2018-09-19T22:36:53.432Z,20.93
2018-09-19T22:39:22.119Z,21.73
2018-09-19T22:41:50.800Z,19.27
2018-09-19T22:44:19.578Z,18.70
2018-09-19T22:46:48.197Z,19.87
2018-09-19T22:49:16.879Z,24.10
2018-09-19T22:51:45.765Z,23.30
2018-09-19T22:54:14.398Z,22.90
2018-09-19T22:56:43.028Z,19.40
2018-09-19T22:59:11.664Z,21.55
2018-09-19T23:01:40.261Z,26.77
2018-09-19T23:04:08.967Z,24.37
2018-09-19T23:06:37.703Z,22.07
2018-09-19T23:09:07.691Z,24.95
2018-09-19T23:11:36.303Z,21.02
2018-09-19T23:14:04.952Z,24.43
2018-09-19T23:16:33.588Z,26.20
2018-09-19T23:19:02.295Z,28.13
2018-09-19T23:21:30.906Z,25.73
2018-09-19T23:23:59.526Z,23.97
2018-09-19T23:26:28.183Z,25.27
2018-09-19T23:28:56.771Z,21.23
2018-09-19T23:31:25.365Z,23.13
2018-09-19T23:33:54.020Z,18.30
2018-09-19T23:36:23.228Z,19.50
2018-09-19T23:38:52.000Z,25.15
2018-09-19T23:41:20.680Z,22.43
2018-09-19T23:43:49.372Z,20.50
2018-09-19T23:46:17.995Z,20.23
2018-09-19T23:48:47.808Z,29.57
2018-09-19T23:51:16.407Z,17.97
2018-09-19T23:53:45.003Z,20.93
2018-09-19T23:56:13.617Z,21.20
2018-09-19T23:58:42.243Z,23.03
